Time;durP1;ratioP1;P1;durP2;ratioP2;P2;SDS_P1;SDS_P2;PMS_P1;PMS_P2;Temp;Humidity;BMP_temperature;BMP_pressure;BME280_temperature;BME280_humidity;BME280_pressure;Samples;Min_cycle;Max_cycle;Signal;HPM_P1;HPM_P2
2021/05/25 00:02:24;;;;;;;45.08;8.70;;;22.00;94.30;;;;;;5037522;28;20453;-70
2021/05/25 00:05:30;;;;;;;44.55;8.38;;;22.00;94.50;;;;;;5037687;28;20041;-70
2021/05/25 00:08:34;;;;;;;39.20;9.40;;;22.00;94.80;;;;;;5037322;28;20052;-70
2021/05/25 00:11:38;;;;;;;42.92;9.60;;;21.90;95.20;;;;;;5036594;28;20049;-70
2021/05/25 00:14:43;;;;;;;36.13;7.88;;;21.90;95.80;;;;;;5037196;28;20052;-70
2021/05/25 00:17:48;;;;;;;34.83;8.68;;;21.90;95.60;;;;;;5037518;28;20048;-69
2021/05/25 00:20:52;;;;;;;28.17;7.65;;;21.90;95.90;;;;;;5037196;28;20118;-70
2021/05/25 00:23:56;;;;;;;32.92;7.95;;;21.80;95.80;;;;;;5037140;28;20452;-70
2021/05/25 00:27:00;;;;;;;28.73;8.07;;;21.80;95.90;;;;;;5037042;28;20441;-70
2021/05/25 00:30:07;;;;;;;31.67;8.27;;;21.80;96.00;;;;;;5036386;28;20056;-69
2021/05/25 00:33:12;;;;;;;27.98;8.05;;;21.80;96.00;;;;;;5036686;28;20358;-69
2021/05/25 00:36:16;;;;;;;29.77;8.45;;;21.70;96.10;;;;;;5036713;28;20052;-70
2021/05/25 00:39:21;;;;;;;27.23;8.95;;;21.80;95.90;;;;;;5036851;28;20060;-70
2021/05/25 00:42:24;;;;;;;27.83;9.65;;;21.80;95.60;;;;;;5036027;28;20396;-69
2021/05/25 00:45:28;;;;;;;29.05;8.88;;;21.80;95.80;;;;;;5035942;28;20052;-70
2021/05/25 00:48:32;;;;;;;37.13;9.32;;;21.70;95.80;;;;;;5036104;28;20056;-70
2021/05/25 00:51:36;;;;;;;30.02;9.25;;;21.80;95.80;;;;;;5036579;28;20044;-70
2021/05/25 00:54:40;;;;;;;35.92;8.70;;;21.70;95.70;;;;;;5036641;28;20040;-68
2021/05/25 00:57:45;;;;;;;35.30;10.18;;;21.70;96.00;;;;;;5036602;28;20040;-70
2021/05/25 01:00:54;;;;;;;31.45;10.00;;;21.70;95.90;;;;;;5036295;28;20040;-71
2021/05/25 01:03:58;;;;;;;29.23;8.82;;;21.70;95.80;;;;;;5036376;28;20049;-69
2021/05/25 01:07:01;;;;;;;43.67;10.40;;;21.70;95.80;;;;;;5036294;28;20041;-70
2021/05/25 01:10:07;;;;;;;33.75;9.25;;;21.60;95.70;;;;;;5035368;28;20036;-69
2021/05/25 01:13:18;;;;;;;38.20;9.88;;;21.60;95.80;;;;;;5035996;28;20057;-70
2021/05/25 01:16:26;;;;;;;;;;;21.70;95.50;;;;;;5047339;28;20043;-69
2021/05/25 01:19:29;;;;;;;37.97;9.90;;;21.60;95.50;;;;;;5036108;28;20265;-69
2021/05/25 01:22:33;;;;;;;30.33;9.98;;;21.60;95.70;;;;;;5036116;28;20484;-69
2021/05/25 01:25:40;;;;;;;28.55;8.23;;;21.60;95.50;;;;;;5036515;28;20048;-70
2021/05/25 01:28:47;;;;;;;32.08;8.73;;;21.60;95.40;;;;;;5035801;28;20045;-70
2021/05/25 01:31:51;;;;;;;36.53;9.82;;;21.60;95.10;;;;;;5035931;28;20100;-69
2021/05/25 01:34:57;;;;;;;35.40;8.55;;;21.60;95.00;;;;;;5023387;28;20044;-69
2021/05/25 01:38:03;;;;;;;43.85;8.60;;;21.60;95.10;;;;;;5035841;28;20049;-70
2021/05/25 01:41:11;;;;;;;37.00;8.90;;;21.60;94.80;;;;;;5036011;28;20056;-69
2021/05/25 01:44:15;;;;;;;49.08;9.32;;;21.60;94.60;;;;;;5035595;28;20052;-70
2021/05/25 01:47:19;;;;;;;29.30;7.82;;;21.60;94.30;;;;;;5035426;28;20060;-70
2021/05/25 01:50:25;;;;;;;36.13;8.30;;;21.60;94.10;;;;;;5035558;28;20041;-70
2021/05/25 01:53:20;;;;;;;41.38;8.57;;;21.60;93.70;;;;;;5041328;28;20053;-68
2021/05/25 01:56:27;;;;;;;34.10;8.35;;;21.60;93.70;;;;;;5035474;28;20489;-70
2021/05/25 01:59:32;;;;;;;40.50;8.13;;;21.60;93.40;;;;;;5035333;28;20040;-70
2021/05/25 02:02:36;;;;;;;36.95;8.27;;;21.60;93.20;;;;;;5035130;28;20064;-68
2021/05/25 02:05:41;;;;;;;37.90;7.55;;;21.60;93.20;;;;;;5035334;28;20044;-70
2021/05/25 02:08:45;;;;;;;31.83;8.27;;;21.60;93.00;;;;;;5035133;28;20048;-69
2021/05/25 02:11:49;;;;;;;40.13;7.70;;;21.60;93.00;;;;;;5035197;28;20040;-70
2021/05/25 02:14:53;;;;;;;34.05;7.65;;;21.60;93.00;;;;;;5035268;28;20040;-70
2021/05/25 02:18:08;;;;;;;43.15;8.38;;;21.50;93.00;;;;;;5035157;28;20064;-69
2021/05/25 02:21:14;;;;;;;37.40;7.75;;;21.60;93.00;;;;;;5034846;28;20496;-69
2021/05/25 02:24:18;;;;;;;27.40;7.03;;;21.50;93.10;;;;;;5033883;28;20048;-70
2021/05/25 02:27:23;;;;;;;39.70;8.18;;;21.50;93.20;;;;;;5034856;28;20052;-70
2021/05/25 02:30:28;;;;;;;32.50;6.68;;;21.50;93.00;;;;;;5034929;28;20047;-70
2021/05/25 02:33:33;;;;;;;30.70;6.88;;;21.50;92.90;;;;;;5034876;28;20044;-69
2021/05/25 02:36:37;;;;;;;38.78;7.65;;;21.40;92.90;;;;;;5034861;28;20048;-69
2021/05/25 02:39:41;;;;;;;39.92;9.15;;;21.40;93.00;;;;;;5034389;28;20045;-69
2021/05/25 02:42:45;;;;;;;35.42;7.75;;;21.40;93.20;;;;;;5033938;28;20045;-69
2021/05/25 02:45:50;;;;;;;32.58;6.97;;;21.40;93.30;;;;;;5033835;28;20052;-70
2021/05/25 02:48:54;;;;;;;35.30;7.72;;;21.30;93.30;;;;;;5035010;28;20045;-70
2021/05/25 02:51:59;;;;;;;34.28;7.68;;;21.30;93.30;;;;;;5034465;28;20045;-69
2021/05/25 02:55:05;;;;;;;34.78;7.40;;;21.30;93.40;;;;;;5034804;28;20359;-71
2021/05/25 02:58:10;;;;;;;37.78;8.35;;;21.30;93.50;;;;;;5033519;28;20052;-69
2021/05/25 03:01:15;;;;;;;27.60;7.25;;;21.30;93.50;;;;;;5034524;28;20044;-69
2021/05/25 03:04:19;;;;;;;38.60;7.82;;;21.30;93.50;;;;;;5033919;28;20048;-70
2021/05/25 03:07:23;;;;;;;34.47;7.05;;;21.30;93.40;;;;;;5033997;28;20397;-69
2021/05/25 03:10:30;;;;;;;29.88;7.05;;;21.30;93.40;;;;;;5034432;28;20078;-69
2021/05/25 03:13:34;;;;;;;29.13;8.13;;;21.30;93.40;;;;;;5032952;28;20060;-69
2021/05/25 03:16:38;;;;;;;48.85;8.38;;;21.30;93.40;;;;;;5033925;28;20060;-70
2021/05/25 03:19:43;;;;;;;35.20;7.88;;;21.30;93.20;;;;;;5034321;28;20453;-70
2021/05/25 03:22:48;;;;;;;36.08;7.72;;;21.30;93.30;;;;;;5034052;28;20052;-70
2021/05/25 03:25:54;;;;;;;30.88;6.78;;;21.20;93.20;;;;;;5034024;28;20041;-70
2021/05/25 03:28:58;;;;;;;35.47;8.23;;;21.20;93.30;;;;;;5033693;28;20436;-69
2021/05/25 03:32:02;;;;;;;32.15;7.90;;;21.20;93.50;;;;;;5032253;28;20064;-69
2021/05/25 03:35:08;;;;;;;32.60;7.30;;;21.10;93.50;;;;;;5034090;28;20048;-70
2021/05/25 03:38:13;;;;;;;30.52;8.55;;;21.10;93.40;;;;;;5033050;28;20040;-70
2021/05/25 03:41:16;;;;;;;34.10;8.00;;;21.20;93.30;;;;;;5034280;28;20045;-70
2021/05/25 03:44:21;;;;;;;34.70;8.35;;;21.10;93.20;;;;;;5032967;28;20056;-71
2021/05/25 03:47:26;;;;;;;33.55;7.13;;;21.00;93.40;;;;;;5033955;28;20040;-71
2021/05/25 03:50:31;;;;;;;36.72;7.57;;;21.00;93.40;;;;;;5034982;28;20044;-70
2021/05/25 03:53:36;;;;;;;39.78;7.57;;;21.10;93.30;;;;;;5033852;28;20040;-69
2021/05/25 03:59:56;;;;;;;37.20;7.20;;;21.10;93.10;;;;;;5033333;28;20044;-71
2021/05/25 04:03:02;;;;;;;35.08;7.78;;;21.10;93.10;;;;;;5034211;28;20072;-69
2021/05/25 04:06:06;;;;;;;28.80;7.15;;;21.00;93.10;;;;;;5034532;28;20056;-70
2021/05/25 04:09:11;;;;;;;38.45;6.93;;;21.00;93.00;;;;;;5033909;28;20052;-70
2021/05/25 04:12:15;;;;;;;34.80;7.70;;;21.00;93.00;;;;;;5033838;28;20064;-69
2021/05/25 04:15:23;;;;;;;32.15;7.47;;;21.10;93.00;;;;;;5034982;28;20049;-71
2021/05/25 04:18:27;;;;;;;31.40;7.38;;;21.10;92.90;;;;;;5034420;28;20044;-68
2021/05/25 04:21:35;;;;;;;29.17;8.13;;;21.20;92.80;;;;;;5032946;28;20056;-68
2021/05/25 04:24:38;;;;;;;30.77;9.50;;;21.20;92.70;;;;;;5033579;28;20061;-69
2021/05/25 04:27:43;;;;;;;39.70;8.25;;;21.20;92.60;;;;;;5033733;28;20052;-70
2021/05/25 04:30:49;;;;;;;32.03;7.13;;;21.30;92.60;;;;;;5033183;28;20052;-69
2021/05/25 04:33:53;;;;;;;27.35;6.55;;;21.30;92.40;;;;;;5021613;28;20044;-70
2021/05/25 04:36:56;;;;;;;33.35;6.55;;;21.30;92.50;;;;;;5033399;28;20040;-68
2021/05/25 04:40:01;;;;;;;38.50;6.93;;;21.30;92.20;;;;;;5033651;28;20052;-71
2021/05/25 04:43:06;;;;;;;31.70;6.47;;;21.40;92.10;;;;;;5034285;28;20420;-69
2021/05/25 04:46:10;;;;;;;28.40;6.57;;;21.40;92.00;;;;;;5037231;28;20492;-70
2021/05/25 04:49:16;;;;;;;34.10;6.82;;;21.40;92.00;;;;;;5036429;28;20370;-71
2021/05/25 04:52:21;;;;;;;33.88;6.88;;;21.50;91.90;;;;;;5037563;28;20068;-70
2021/05/25 04:55:25;;;;;;;27.67;7.25;;;21.50;92.00;;;;;;5036826;28;20044;-70
2021/05/25 04:58:29;;;;;;;29.88;6.43;;;21.40;92.10;;;;;;5037833;28;20049;-68
2021/05/25 05:01:34;;;;;;;23.23;6.93;;;21.40;92.10;;;;;;5036965;28;20040;-68
2021/05/25 05:04:38;;;;;;;33.72;7.35;;;21.40;92.00;;;;;;5037949;28;20060;-70
2021/05/25 05:07:42;;;;;;;39.80;7.40;;;21.40;92.00;;;;;;5035395;28;20044;-70
2021/05/25 05:10:46;;;;;;;37.17;8.18;;;21.40;92.10;;;;;;5035865;28;20049;-70
2021/05/25 05:13:50;;;;;;;58.20;8.55;;;21.30;92.10;;;;;;5037051;28;20048;-70
2021/05/25 05:16:54;;;;;;;31.75;9.32;;;21.30;92.10;;;;;;5037570;28;20044;-72
2021/05/25 05:20:02;;;;;;;56.33;11.43;;;21.30;92.00;;;;;;5036509;28;20440;-72
2021/05/25 05:23:09;;;;;;;36.28;8.00;;;21.30;92.30;;;;;;5037863;28;20490;-71
2021/05/25 05:26:14;;;;;;;33.15;6.65;;;21.30;92.10;;;;;;5037975;28;20060;-70
2021/05/25 05:34:05;;;;;;;21.98;5.93;;;21.30;91.30;;;;;;5038603;28;20044;-72
2021/05/25 05:37:11;;;;;;;31.38;5.18;;;21.40;90.90;;;;;;5038165;28;20064;-72
2021/05/25 05:40:15;;;;;;;27.73;6.65;;;21.60;90.60;;;;;;5038216;28;20488;-73
2021/05/25 05:43:20;;;;;;;33.45;7.32;;;21.70;90.30;;;;;;5036904;28;20044;-75
2021/05/25 05:46:24;;;;;;;31.95;6.20;;;21.60;90.10;;;;;;5036812;28;20434;-72
2021/05/25 05:49:29;;;;;;;24.17;5.97;;;21.50;90.40;;;;;;5039039;28;20036;-74
2021/05/25 05:52:32;;;;;;;20.35;6.15;;;21.50;90.20;;;;;;5039928;28;20063;-77
2021/05/25 05:55:36;;;;;;;25.85;6.22;;;21.60;90.20;;;;;;5037614;28;20064;-75
2021/05/25 05:58:40;;;;;;;25.00;6.40;;;21.60;90.20;;;;;;5038780;28;20052;-75
2021/05/25 06:01:44;;;;;;;24.55;5.63;;;21.60;90.20;;;;;;5037335;28;20547;-74
2021/05/25 06:04:49;;;;;;;22.10;5.22;;;21.60;90.40;;;;;;5038705;28;20505;-75
2021/05/25 06:07:53;;;;;;;24.23;6.57;;;21.70;90.60;;;;;;5037970;28;20044;-74
2021/05/25 06:10:57;;;;;;;23.30;5.65;;;21.70;90.40;;;;;;5036448;28;20048;-74
2021/05/25 06:14:02;;;;;;;16.38;6.32;;;21.60;90.30;;;;;;5037461;28;20048;-76
2021/05/25 06:17:06;;;;;;;21.70;4.93;;;21.50;90.50;;;;;;5036704;28;20052;-74
2021/05/25 06:20:11;;;;;;;28.77;5.53;;;21.60;90.50;;;;;;5036657;28;20049;-69
2021/05/25 06:23:16;;;;;;;30.67;5.40;;;21.50;90.40;;;;;;5037255;28;20049;-72
2021/05/25 06:26:21;;;;;;;19.58;4.80;;;21.60;90.10;;;;;;5035621;28;20048;-69
2021/05/25 06:29:25;;;;;;;23.95;5.35;;;21.70;89.80;;;;;;5036065;28;20044;-74
2021/05/25 06:32:29;;;;;;;33.05;5.20;;;21.80;89.30;;;;;;5035732;28;20052;-76
2021/05/25 06:35:34;;;;;;;21.50;4.13;;;21.70;89.60;;;;;;5035455;28;20385;-75
2021/05/25 06:38:38;;;;;;;29.67;6.13;;;21.80;89.90;;;;;;5037291;28;20052;-69
2021/05/25 06:41:42;;;;;;;22.13;4.70;;;21.70;88.90;;;;;;5035671;28;20068;-72
2021/05/25 06:44:46;;;;;;;25.38;5.28;;;21.70;89.20;;;;;;5035961;28;20381;-74
2021/05/25 06:47:50;;;;;;;30.65;5.00;;;21.70;89.30;;;;;;5036502;28;20036;-74
2021/05/25 06:50:55;;;;;;;30.95;5.38;;;21.80;89.90;;;;;;5037188;28;20056;-73
2021/05/25 06:54:03;;;;;;;29.92;5.20;;;21.90;89.60;;;;;;5035424;28;20048;-74
2021/05/25 06:57:07;;;;;;;20.65;4.53;;;22.20;89.10;;;;;;5036885;28;20044;-76
2021/05/25 07:00:13;;;;;;;27.27;5.50;;;22.70;86.20;;;;;;5037252;28;20484;-76
2021/05/25 07:03:17;;;;;;;33.08;5.22;;;23.10;84.40;;;;;;5035578;28;20040;-75
2021/05/25 07:06:22;;;;;;;22.70;5.18;;;23.60;83.30;;;;;;5034539;28;20052;-76
2021/05/25 07:09:27;;;;;;;20.85;5.05;;;23.90;81.30;;;;;;5037481;28;20380;-78
2021/05/25 07:12:31;;;;;;;26.55;5.50;;;24.30;80.30;;;;;;5036825;28;20061;-75
2021/05/25 07:15:35;;;;;;;20.77;4.88;;;24.60;79.90;;;;;;5037514;28;20044;-77
2021/05/25 07:18:42;;;;;;;19.60;5.05;;;24.90;77.60;;;;;;5038256;28;20440;-74
2021/05/25 07:21:45;;;;;;;24.48;4.88;;;25.10;76.70;;;;;;5038321;28;20492;-72
2021/05/25 07:24:50;;;;;;;20.55;4.70;;;25.20;76.50;;;;;;5036587;28;20052;-75
2021/05/25 07:27:57;;;;;;;20.48;5.03;;;25.10;75.50;;;;;;5034973;28;20103;-75
2021/05/25 07:31:01;;;;;;;23.80;4.70;;;25.10;76.00;;;;;;5037063;28;20048;-73
2021/05/25 07:34:05;;;;;;;14.40;4.43;;;25.50;75.50;;;;;;5042913;28;20041;-75
2021/05/25 07:37:09;;;;;;;18.58;4.30;;;25.60;74.60;;;;;;5034290;28;20048;-74
2021/05/25 07:40:17;;;;;;;25.23;4.28;;;26.00;73.80;;;;;;5034349;28;20041;-73
2021/05/25 07:43:21;;;;;;;19.02;4.35;;;26.00;73.10;;;;;;5037001;28;20048;-76
2021/05/25 07:46:26;;;;;;;21.83;4.78;;;25.70;74.10;;;;;;5036369;28;20049;-75
2021/05/25 07:49:30;;;;;;;19.52;4.57;;;25.80;74.70;;;;;;5037028;28;20045;-79
2021/05/25 07:52:34;;;;;;;21.33;4.97;;;25.70;74.30;;;;;;5035196;28;20036;-75
2021/05/25 07:55:41;;;;;;;20.67;4.57;;;25.30;74.00;;;;;;5035658;28;20033;-73
2021/05/25 07:58:45;;;;;;;22.55;5.28;;;25.20;75.10;;;;;;5035659;28;20116;-76
2021/05/25 08:01:50;;;;;;;28.45;5.80;;;25.10;75.40;;;;;;5033970;28;20068;-76
2021/05/25 08:04:55;;;;;;;22.02;4.30;;;25.10;74.60;;;;;;5034885;28;20048;-77
2021/05/25 08:08:03;;;;;;;20.15;4.57;;;24.90;74.50;;;;;;5036330;28;20385;-75
2021/05/25 08:11:12;;;;;;;16.42;4.55;;;25.00;74.20;;;;;;5033635;28;20048;-73
2021/05/25 08:14:17;;;;;;;17.10;4.40;;;25.40;73.10;;;;;;5033997;28;20052;-72
2021/05/25 08:20:46;;;;;;;19.20;4.38;;;25.70;72.00;;;;;;5030046;28;20048;-71
2021/05/25 08:23:50;;;;;;;11.75;3.42;;;25.80;71.10;;;;;;5040517;28;20044;-68
2021/05/25 08:26:54;;;;;;;17.17;4.00;;;25.90;70.50;;;;;;5038820;28;20053;-74
2021/05/25 08:29:59;;;;;;;21.40;3.90;;;25.90;70.70;;;;;;5040954;28;20389;-70
2021/05/25 08:33:04;;;;;;;18.38;3.58;;;25.70;71.10;;;;;;5038640;28;20048;-70
2021/05/25 08:36:09;;;;;;;24.40;5.38;;;25.40;71.50;;;;;;5039498;28;20389;-73
2021/05/25 08:39:14;;;;;;;17.08;4.40;;;25.30;72.00;;;;;;5029880;28;20036;-76
2021/05/25 08:42:18;;;;;;;20.27;3.42;;;25.20;71.90;;;;;;5043820;28;20143;-77
2021/05/25 08:45:23;;;;;;;14.80;4.10;;;25.40;71.20;;;;;;5044556;28;20052;-81
2021/05/25 08:48:29;;;;;;;18.55;4.80;;;25.80;70.50;;;;;;5041490;28;20045;-76
2021/05/25 08:51:34;;;;;;;9.77;3.92;;;26.20;69.60;;;;;;5043271;28;20052;-76
2021/05/25 08:54:41;;;;;;;15.85;3.85;;;26.40;69.20;;;;;;5041454;28;20041;-76
2021/05/25 08:57:46;;;;;;;10.93;3.42;;;26.70;68.40;;;;;;5041601;28;20397;-71
2021/05/25 09:00:52;;;;;;;21.80;5.25;;;26.70;67.90;;;;;;5042744;28;20422;-70
2021/05/25 09:04:01;;;;;;;20.50;3.67;;;26.80;67.30;;;;;;5042325;28;20045;-75
2021/05/25 09:07:06;;;;;;;15.55;3.55;;;26.70;67.40;;;;;;5041242;28;20041;-70
2021/05/25 09:13:43;;;;;;;15.35;3.20;;;26.40;66.90;;;;;;5040745;28;20064;-74
2021/05/25 09:16:48;;;;;;;12.70;3.05;;;26.40;67.10;;;;;;5042486;28;20127;-77
2021/05/25 09:19:57;;;;;;;15.07;3.75;;;26.60;66.50;;;;;;5044987;28;20048;-78
2021/05/25 09:23:01;;;;;;;13.75;3.30;;;26.80;66.40;;;;;;5045496;28;20052;-76
2021/05/25 09:26:12;;;;;;;10.52;2.75;;;26.90;65.80;;;;;;5044147;28;20052;-76
2021/05/25 09:29:17;;;;;;;18.30;3.33;;;26.80;65.40;;;;;;5045560;28;20049;-75
2021/05/25 09:32:23;;;;;;;12.05;3.70;;;26.70;65.90;;;;;;5043458;28;20064;-76
2021/05/25 09:35:30;;;;;;;9.63;2.67;;;26.60;65.40;;;;;;5042676;28;20044;-75
2021/05/25 09:38:36;;;;;;;13.75;3.20;;;26.50;65.70;;;;;;5041332;28;20052;-80
2021/05/25 09:42:03;;;;;;;12.43;3.15;;;26.30;66.00;;;;;;5043380;28;20060;-77
2021/05/25 09:45:11;;;;;;;22.42;3.40;;;26.10;66.60;;;;;;5040268;28;20052;-75
2021/05/25 09:48:16;;;;;;;12.00;3.08;;;25.90;67.10;;;;;;5040852;28;20040;-80
2021/05/25 09:51:28;;;;;;;16.48;3.65;;;25.80;67.10;;;;;;5041921;28;20057;-72
2021/05/25 09:54:34;;;;;;;9.10;2.33;;;25.60;67.60;;;;;;5036395;28;20401;-73
2021/05/25 09:57:46;;;;;;;14.25;3.33;;;25.60;68.30;;;;;;5039122;28;20507;-75
2021/05/25 10:00:52;;;;;;;14.20;3.20;;;25.60;68.20;;;;;;5040805;28;20040;-76
2021/05/25 10:03:56;;;;;;;13.80;2.90;;;25.60;67.50;;;;;;5040588;28;20045;-77
2021/05/25 10:07:01;;;;;;;24.65;3.40;;;25.60;67.90;;;;;;5039815;28;20045;-74
2021/05/25 10:10:06;;;;;;;18.35;4.03;;;25.50;68.10;;;;;;5039392;28;20043;-74
2021/05/25 10:13:12;;;;;;;24.40;4.68;;;25.40;67.70;;;;;;5039357;28;20084;-75
2021/05/25 10:16:18;;;;;;;27.02;3.17;;;25.40;66.90;;;;;;5039524;28;20105;-75
2021/05/25 10:19:27;;;;;;;16.55;3.30;;;25.30;67.30;;;;;;5041510;28;20105;-74
2021/05/25 10:22:31;;;;;;;15.80;2.33;;;25.60;67.00;;;;;;5040805;28;20493;-74
2021/05/25 10:25:38;;;;;;;17.77;2.72;;;26.00;66.00;;;;;;5041672;28;20056;-75
2021/05/25 10:28:53;;;;;;;13.75;2.50;;;26.00;65.00;;;;;;5043446;28;20044;-75
2021/05/25 10:32:04;;;;;;;17.33;2.78;;;26.10;64.40;;;;;;5038380;28;20040;-75
2021/05/25 10:35:08;;;;;;;6.68;2.03;;;26.20;64.20;;;;;;5039945;28;20040;-75
2021/05/25 10:38:15;;;;;;;9.50;2.60;;;26.30;64.30;;;;;;5043220;28;20120;-75
2021/05/25 10:41:45;;;;;;;10.02;2.60;;;26.40;64.30;;;;;;5045281;28;20043;-74
2021/05/25 10:45:10;;;;;;;13.63;2.78;;;26.50;63.90;;;;;;5041406;28;20056;-75
2021/05/25 10:48:15;;;;;;;14.40;2.85;;;26.70;63.30;;;;;;5047882;28;20044;-76
2021/05/25 10:51:21;;;;;;;14.13;3.33;;;26.70;63.00;;;;;;5040539;28;20048;-80
2021/05/25 10:54:36;;;;;;;15.20;2.65;;;26.70;63.60;;;;;;5041505;28;20053;-77
2021/05/25 10:57:49;;;;;;;15.35;3.60;;;26.80;64.10;;;;;;5045082;28;20044;-77
2021/05/25 11:05:56;;;;;;;10.73;2.90;;;26.80;64.90;;;;;;5036778;28;20048;-70
2021/05/25 11:09:27;;;;;;;12.05;2.95;;;26.80;63.70;;;;;;5037428;28;20487;-70
2021/05/25 11:12:31;;;;;;;13.05;3.05;;;26.70;63.90;;;;;;5037341;28;20396;-70
2021/05/25 11:15:54;;;;;;;12.48;3.28;;;26.80;64.70;;;;;;5038564;28;20079;-70
2021/05/25 11:19:07;;;;;;;11.05;2.92;;;26.80;65.60;;;;;;5040706;28;20108;-70
2021/05/25 11:22:18;;;;;;;27.60;5.00;;;26.80;65.20;;;;;;5038743;28;20040;-70
2021/05/25 11:25:42;;;;;;;19.33;3.47;;;26.80;65.60;;;;;;5039656;28;20049;-68
2021/05/25 11:29:20;;;;;;;16.85;3.55;;;26.70;65.40;;;;;;5038296;28;20373;-69
2021/05/25 11:32:25;;;;;;;12.80;4.50;;;26.70;65.70;;;;;;5036805;28;20044;-70
2021/05/25 11:35:33;;;;;;;14.45;3.17;;;26.70;65.20;;;;;;5038792;28;20053;-72
2021/05/25 11:43:23;;;;;;;13.50;2.75;;;26.70;65.60;;;;;;5036591;28;20040;-69
2021/05/25 11:46:50;;;;;;;15.32;3.08;;;26.70;64.80;;;;;;5036372;28;20052;-69
2021/05/25 11:49:55;;;;;;;13.75;4.00;;;26.70;65.40;;;;;;5037154;28;20044;-69
2021/05/25 11:53:00;;;;;;;8.27;3.10;;;26.70;65.90;;;;;;5038156;28;20044;-69
2021/05/25 11:56:10;;;;;;;14.93;3.30;;;26.80;66.20;;;;;;5040994;28;20052;-69
2021/05/25 11:59:20;;;;;;;13.77;3.35;;;26.80;65.50;;;;;;5039531;28;20060;-66
2021/05/25 12:02:25;;;;;;;13.15;3.70;;;26.80;65.50;;;;;;5039746;28;20052;-69
2021/05/25 12:05:31;;;;;;;14.85;3.33;;;26.80;66.10;;;;;;5040908;28;20432;-69
2021/05/25 12:08:36;;;;;;;17.55;3.45;;;26.80;65.80;;;;;;5042013;28;20044;-69
2021/05/25 12:11:42;;;;;;;11.55;3.17;;;26.90;65.90;;;;;;5040937;28;20468;-70
2021/05/25 12:14:47;;;;;;;15.73;3.60;;;26.90;65.90;;;;;;5040682;28;20067;-73
2021/05/25 12:17:57;;;;;;;27.67;4.55;;;26.90;66.00;;;;;;5041608;28;20071;-70
2021/05/25 12:21:04;;;;;;;14.27;3.80;;;26.80;66.10;;;;;;5040670;28;20477;-69
2021/05/25 12:24:08;;;;;;;18.83;3.20;;;26.80;66.70;;;;;;5041226;28;20036;-70
2021/05/25 12:27:12;;;;;;;16.15;3.67;;;26.80;66.50;;;;;;5039716;28;20069;-69
2021/05/25 12:30:19;;;;;;;17.98;4.10;;;26.80;66.70;;;;;;5040712;28;20036;-70
2021/05/25 12:33:27;;;;;;;13.82;2.97;;;26.80;66.40;;;;;;5040767;28;20484;-70
2021/05/25 12:36:38;;;;;;;19.33;3.47;;;26.80;66.70;;;;;;5041336;28;20500;-70
2021/05/25 12:39:42;;;;;;;13.35;3.65;;;26.80;66.10;;;;;;5041245;28;20052;-69
2021/05/25 12:42:46;;;;;;;11.63;3.83;;;26.80;66.00;;;;;;5040502;28;20045;-70
2021/05/25 12:45:52;;;;;;;9.98;3.85;;;26.80;66.60;;;;;;5040097;28;20055;-69
2021/05/25 12:48:57;;;;;;;13.75;4.05;;;26.80;66.80;;;;;;5040733;28;20049;-69
2021/05/25 12:52:21;;;;;;;12.38;3.90;;;26.70;67.00;;;;;;5040527;28;20393;-71
2021/05/25 12:55:26;;;;;;;15.45;3.83;;;26.70;66.90;;;;;;5041711;28;20044;-70
2021/05/25 12:58:43;;;;;;;16.42;4.18;;;26.70;67.30;;;;;;5029052;28;20045;-71
2021/05/25 13:01:47;;;;;;;10.43;3.65;;;26.60;67.60;;;;;;5042115;28;20056;-70
2021/05/25 13:05:04;;;;;;;10.80;3.83;;;26.70;67.30;;;;;;5039893;28;20061;-70
2021/05/25 13:08:11;;;;;;;15.57;3.72;;;26.60;67.30;;;;;;5041002;28;20044;-75
2021/05/25 13:11:15;;;;;;;19.58;3.72;;;26.60;68.00;;;;;;5040147;28;20064;-71
2021/05/25 13:14:20;;;;;;;14.30;3.80;;;26.50;67.80;;;;;;5042246;28;20400;-76
2021/05/25 13:17:25;;;;;;;15.15;3.88;;;26.50;68.40;;;;;;5044754;28;20052;-76
2021/05/25 13:20:29;;;;;;;17.80;5.03;;;26.40;68.40;;;;;;5040832;28;20045;-72
2021/05/25 13:23:35;;;;;;;12.70;3.65;;;26.50;68.50;;;;;;5043852;28;20044;-75
2021/05/25 13:26:41;;;;;;;18.20;3.67;;;26.40;68.10;;;;;;5042106;28;20061;-75
2021/05/25 13:30:00;;;;;;;9.38;3.00;;;26.40;68.40;;;;;;5042097;28;20048;-71
2021/05/25 13:33:04;;;;;;;10.93;3.25;;;26.40;68.80;;;;;;5041360;28;20043;-78
2021/05/25 13:40:53;;;;;;;18.58;4.43;;;26.30;67.90;;;;;;5040557;28;20041;-74
2021/05/25 13:44:01;;;;;;;13.98;3.60;;;26.30;67.90;;;;;;5041687;28;20048;-75
2021/05/25 13:47:06;;;;;;;14.55;2.95;;;26.30;67.70;;;;;;5042378;28;20056;-75
2021/05/25 13:50:23;;;;;;;21.02;4.30;;;26.30;67.70;;;;;;5041520;28;20040;-75
2021/05/25 13:53:27;;;;;;;23.23;3.63;;;26.30;67.60;;;;;;5030257;28;20520;-73
2021/05/25 13:57:08;;;;;;;19.83;3.22;;;26.30;67.40;;;;;;5040788;28;20033;-75
2021/05/25 14:00:11;;;;;;;;;;;26.30;67.50;;;;;;5041081;28;20064;-75
2021/05/25 14:03:16;;;;;;;12.45;3.70;;;26.20;67.60;;;;;;5041252;28;19938;-75
2021/05/25 14:06:20;;;;;;;13.07;2.80;;;26.20;67.30;;;;;;5039432;28;20053;-76
2021/05/25 14:09:25;;;;;;;15.05;3.45;;;26.20;66.70;;;;;;5039779;28;20053;-76
2021/05/25 14:12:29;;;;;;;21.95;4.03;;;26.20;66.90;;;;;;5038889;28;20056;-73
2021/05/25 14:15:37;;;;;;;13.30;3.55;;;26.10;67.40;;;;;;5037863;28;20056;-73
2021/05/25 14:18:41;;;;;;;16.38;4.25;;;26.10;67.40;;;;;;5038328;28;20048;-75
2021/05/25 14:21:45;;;;;;;18.52;3.40;;;26.10;67.20;;;;;;5039888;28;20044;-75
2021/05/25 14:24:52;;;;;;;12.90;3.28;;;26.00;67.80;;;;;;5039796;28;20036;-75
2021/05/25 14:27:57;;;;;;;14.35;3.38;;;26.00;67.60;;;;;;5039669;28;20397;-75
2021/05/25 14:31:03;;;;;;;20.00;4.20;;;26.00;67.40;;;;;;5040513;28;20397;-75
2021/05/25 14:34:10;;;;;;;22.02;4.38;;;26.00;67.80;;;;;;5037682;28;20048;-75
2021/05/25 14:37:15;;;;;;;19.80;3.78;;;26.00;67.60;;;;;;5050968;28;20044;-74
2021/05/25 14:40:19;;;;;;;22.67;4.10;;;26.00;67.40;;;;;;5039436;28;20048;-75
2021/05/25 14:43:26;;;;;;;13.73;3.70;;;26.00;67.20;;;;;;5039265;28;20056;-75
2021/05/25 14:46:31;;;;;;;19.70;4.05;;;25.90;67.10;;;;;;5039508;28;20056;-74
2021/05/25 14:49:38;;;;;;;12.77;3.20;;;25.80;67.20;;;;;;5038563;28;20488;-74
2021/05/25 14:52:42;;;;;;;14.25;3.40;;;25.80;67.40;;;;;;5037811;28;20052;-74
2021/05/25 14:55:50;;;;;;;20.63;3.53;;;25.80;67.50;;;;;;5039000;28;20044;-74
2021/05/25 14:58:57;;;;;;;14.57;3.15;;;25.80;67.30;;;;;;5039709;28;20060;-74
2021/05/25 15:02:06;;;;;;;15.05;3.95;;;25.80;66.90;;;;;;5039800;28;20040;-75
2021/05/25 15:05:22;;;;;;;17.25;3.55;;;25.80;67.10;;;;;;5041418;28;20048;-75
2021/05/25 15:08:30;;;;;;;14.00;3.75;;;25.70;66.10;;;;;;5038985;28;20040;-75
2021/05/25 15:11:34;;;;;;;13.48;3.70;;;25.80;66.30;;;;;;5035811;28;20040;-73
2021/05/25 15:14:39;;;;;;;8.88;2.55;;;25.80;66.40;;;;;;5039701;28;20049;-74
2021/05/25 15:17:44;;;;;;;14.32;3.20;;;25.80;66.20;;;;;;5038889;28;20029;-72
2021/05/25 15:20:50;;;;;;;16.33;3.75;;;25.80;65.80;;;;;;5039964;28;20041;-74
2021/05/25 15:23:54;;;;;;;19.92;3.53;;;25.80;65.40;;;;;;5037632;28;20048;-73
2021/05/25 15:26:58;;;;;;;18.98;3.38;;;25.70;65.50;;;;;;5037834;28;20052;-75
2021/05/25 15:30:04;;;;;;;15.20;3.60;;;25.70;65.80;;;;;;5038897;28;20377;-73
2021/05/25 15:33:09;;;;;;;12.65;3.75;;;25.60;65.20;;;;;;5037819;28;20048;-74
2021/05/25 15:36:17;;;;;;;16.15;3.17;;;25.70;65.10;;;;;;5039558;28;20044;-74
2021/05/25 15:39:21;;;;;;;23.33;4.45;;;25.70;65.30;;;;;;5016203;28;20044;-74
2021/05/25 15:42:26;;;;;;;24.48;4.25;;;25.80;65.80;;;;;;5037659;28;20488;-74
2021/05/25 15:45:33;;;;;;;12.93;3.33;;;25.80;66.10;;;;;;5040717;28;20044;-74
2021/05/25 15:48:37;;;;;;;17.77;3.65;;;25.80;65.90;;;;;;5038371;28;20068;-75
2021/05/25 15:51:41;;;;;;;14.25;3.15;;;25.80;65.70;;;;;;5038417;28;20041;-75
2021/05/25 15:54:47;;;;;;;24.27;4.00;;;25.70;65.80;;;;;;5038886;28;20140;-74
2021/05/25 15:57:51;;;;;;;14.32;3.80;;;25.70;65.70;;;;;;5039592;28;20060;-74
2021/05/25 16:00:56;;;;;;;17.60;3.95;;;25.60;66.00;;;;;;5039381;28;20045;-75
2021/05/25 16:04:00;;;;;;;21.95;3.90;;;25.60;66.20;;;;;;5037715;28;20128;-75
2021/05/25 16:07:04;;;;;;;15.43;3.40;;;25.50;65.70;;;;;;5037011;28;20510;-74
2021/05/25 16:10:10;;;;;;;21.48;4.10;;;25.50;66.20;;;;;;5038035;28;20041;-72
2021/05/25 16:13:15;;;;;;;24.00;3.85;;;25.40;65.80;;;;;;5036378;28;20719;-71
2021/05/25 16:16:22;;;;;;;20.20;3.33;;;25.30;66.20;;;;;;5037597;28;20036;-72
2021/05/25 16:19:26;;;;;;;17.10;3.10;;;25.40;66.10;;;;;;5037281;28;20045;-71
2021/05/25 16:22:34;;;;;;;18.23;3.70;;;25.30;66.30;;;;;;5037252;28;20044;-75
2021/05/25 16:25:39;;;;;;;17.92;3.28;;;25.20;66.30;;;;;;5025626;28;20059;-71
2021/05/25 16:28:43;;;;;;;16.13;2.97;;;25.30;66.30;;;;;;5035068;28;20373;-70